sensor_id;sensor_type;location;lat;lon;timestamp;pressure;altitude;pressure_sealevel;temperature;humidity
13058;BME280;6595;49.578;11.012;2023-11-21T00:00:24;982.407;;;7.62;92.4
13058;BME280;6595;49.578;11.012;2023-11-21T00:02:24;982.499;;;7.65;92.6
13058;BME280;6595;49.578;11.012;2023-11-21T00:04:23;982.456;;;7.66;92.6
13058;BME280;6595;49.578;11.012;2023-11-21T00:06:24;982.487;;;7.64;92.6
13058;BME280;6595;49.578;11.012;2023-11-21T00:08:24;982.378;;;7.65;92.9
13058;BME280;6595;49.578;11.012;2023-11-21T00:10:23;982.441;;;7.62;92.8
13058;BME280;6595;49.578;11.012;2023-11-21T00:12:23;982.438;;;7.58;92.8
13058;BME280;6595;49.578;11.012;2023-11-21T00:14:24;982.372;;;7.62;93.0
13058;BME280;6595;49.578;11.012;2023-11-21T00:16:23;982.475;;;7.58;92.8
13058;BME280;6595;49.578;11.012;2023-11-21T00:18:23;982.408;;;7.61;92.9
13058;BME280;6595;49.578;11.012;2023-11-21T00:20:24;982.444;;;7.58;93.3
13058;BME280;6595;49.578;11.012;2023-11-21T00:22:23;982.444;;;7.58;93.3
13058;BME280;6595;49.578;11.012;2023-11-21T00:24:23;982.462;;;7.55;93.0
13058;BME280;6595;49.578;11.012;2023-11-21T00:26:24;982.401;;;7.54;93.1
13058;BME280;6595;49.578;11.012;2023-11-21T00:28:24;982.519;;;7.51;93.2
13058;BME280;6595;49.578;11.012;2023-11-21T00:30:23;982.444;;;7.52;93.5
13058;BME280;6595;49.578;11.012;2023-11-21T00:32:24;982.438;;;7.51;93.6
13058;BME280;6595;49.578;11.012;2023-11-21T00:34:23;982.438;;;7.51;93.6
13058;BME280;6595;49.578;11.012;2023-11-21T00:36:24;982.419;;;7.55;93.4
13058;BME280;6595;49.578;11.012;2023-11-21T00:38:23;982.382;;;7.57;93.6
13058;BME280;6595;49.578;11.012;2023-11-21T00:40:23;982.387;;;7.57;93.6
13058;BME280;6595;49.578;11.012;2023-11-21T00:42:24;982.409;;;7.59;93.7
13058;BME280;6595;49.578;11.012;2023-11-21T00:44:23;982.379;;;7.55;93.6
13058;BME280;6595;49.578;11.012;2023-11-21T00:46:23;982.380;;;7.57;93.6
13058;BME280;6595;49.578;11.012;2023-11-21T00:48:24;982.375;;;7.58;93.7
13058;BME280;6595;49.578;11.012;2023-11-21T00:50:23;982.385;;;7.59;93.5
13058;BME280;6595;49.578;11.012;2023-11-21T00:52:23;982.332;;;7.59;93.8
13058;BME280;6595;49.578;11.012;2023-11-21T00:54:24;982.368;;;7.61;93.7
13058;BME280;6595;49.578;11.012;2023-11-21T00:56:23;982.360;;;7.59;93.5
13058;BME280;6595;49.578;11.012;2023-11-21T00:58:24;982.423;;;7.65;93.6
13058;BME280;6595;49.578;11.012;2023-11-21T01:00:23;982.383;;;7.64;93.4
13058;BME280;6595;49.578;11.012;2023-11-21T01:02:23;982.363;;;7.64;93.6
13058;BME280;6595;49.578;11.012;2023-11-21T01:04:23;982.486;;;7.62;93.4
13058;BME280;6595;49.578;11.012;2023-11-21T01:06:24;982.381;;;7.58;93.1
13058;BME280;6595;49.578;11.012;2023-11-21T01:08:23;982.459;;;7.58;93.2
13058;BME280;6595;49.578;11.012;2023-11-21T01:10:23;982.506;;;7.59;93.2
13058;BME280;6595;49.578;11.012;2023-11-21T01:12:24;982.491;;;7.58;93.0
13058;BME280;6595;49.578;11.012;2023-11-21T01:14:23;982.506;;;7.57;93.2
13058;BME280;6595;49.578;11.012;2023-11-21T01:16:24;982.462;;;7.57;93.3
13058;BME280;6595;49.578;11.012;2023-11-21T01:18:24;982.537;;;7.58;93.3
13058;BME280;6595;49.578;11.012;2023-11-21T01:20:23;982.519;;;7.55;93.4
13058;BME280;6595;49.578;11.012;2023-11-21T01:22:24;982.444;;;7.58;93.4
13058;BME280;6595;49.578;11.012;2023-11-21T01:24:24;982.542;;;7.55;93.2
13058;BME280;6595;49.578;11.012;2023-11-21T01:26:23;982.488;;;7.58;93.3
13058;BME280;6595;49.578;11.012;2023-11-21T01:28:23;982.542;;;7.58;93.5
13058;BME280;6595;49.578;11.012;2023-11-21T01:30:24;982.484;;;7.61;93.9
13058;BME280;6595;49.578;11.012;2023-11-21T01:32:24;982.470;;;7.61;93.7
13058;BME280;6595;49.578;11.012;2023-11-21T01:34:23;982.502;;;7.58;93.5
13058;BME280;6595;49.578;11.012;2023-11-21T01:36:29;982.464;;;7.64;93.8
13058;BME280;6595;49.578;11.012;2023-11-21T01:38:24;982.463;;;7.64;93.9
13058;BME280;6595;49.578;11.012;2023-11-21T01:40:23;982.509;;;7.64;93.8
13058;BME280;6595;49.578;11.012;2023-11-21T01:42:23;982.464;;;7.59;93.8
13058;BME280;6595;49.578;11.012;2023-11-21T01:44:24;982.451;;;7.61;93.6
13058;BME280;6595;49.578;11.012;2023-11-21T01:46:23;982.369;;;7.61;93.7
13058;BME280;6595;49.578;11.012;2023-11-21T01:48:23;982.508;;;7.62;93.8
13058;BME280;6595;49.578;11.012;2023-11-21T01:50:24;982.533;;;7.62;94.0
13058;BME280;6595;49.578;11.012;2023-11-21T01:52:23;982.468;;;7.68;93.9
13058;BME280;6595;49.578;11.012;2023-11-21T01:54:23;982.389;;;7.62;93.8
13058;BME280;6595;49.578;11.012;2023-11-21T01:56:24;982.372;;;7.64;93.8
13058;BME280;6595;49.578;11.012;2023-11-21T01:58:23;982.333;;;7.64;93.8
13058;BME280;6595;49.578;11.012;2023-11-21T02:00:23;982.395;;;7.61;94.0
13058;BME280;6595;49.578;11.012;2023-11-21T02:02:24;982.394;;;7.58;93.9
13058;BME280;6595;49.578;11.012;2023-11-21T02:04:23;982.307;;;7.58;93.9
13058;BME280;6595;49.578;11.012;2023-11-21T02:06:24;982.313;;;7.58;94.0
13058;BME280;6595;49.578;11.012;2023-11-21T02:08:23;982.329;;;7.57;94.0
13058;BME280;6595;49.578;11.012;2023-11-21T02:10:24;982.265;;;7.54;94.0
13058;BME280;6595;49.578;11.012;2023-11-21T02:12:24;982.242;;;7.55;94.0
13058;BME280;6595;49.578;11.012;2023-11-21T02:14:24;982.315;;;7.54;94.0
13058;BME280;6595;49.578;11.012;2023-11-21T02:16:23;982.367;;;7.52;94.0
13058;BME280;6595;49.578;11.012;2023-11-21T02:18:24;982.352;;;7.52;94.0
13058;BME280;6595;49.578;11.012;2023-11-21T02:20:24;982.333;;;7.50;94.0
13058;BME280;6595;49.578;11.012;2023-11-21T02:22:25;982.381;;;7.51;94.1
13058;BME280;6595;49.578;11.012;2023-11-21T02:24:24;982.366;;;7.50;93.9
13058;BME280;6595;49.578;11.012;2023-11-21T02:26:23;982.366;;;7.50;93.9
13058;BME280;6595;49.578;11.012;2023-11-21T02:28:23;982.396;;;7.55;94.0
13058;BME280;6595;49.578;11.012;2023-11-21T02:30:24;982.396;;;7.55;94.0
13058;BME280;6595;49.578;11.012;2023-11-21T02:32:23;982.317;;;7.52;93.9
13058;BME280;6595;49.578;11.012;2023-11-21T02:34:23;982.264;;;7.55;93.9
13058;BME280;6595;49.578;11.012;2023-11-21T02:36:23;982.276;;;7.55;93.9
13058;BME280;6595;49.578;11.012;2023-11-21T02:38:24;982.308;;;7.58;94.0
13058;BME280;6595;49.578;11.012;2023-11-21T02:40:23;982.266;;;7.59;94.0
13058;BME280;6595;49.578;11.012;2023-11-21T02:42:24;982.266;;;7.59;94.0
13058;BME280;6595;49.578;11.012;2023-11-21T02:44:23;982.187;;;7.61;93.8
13058;BME280;6595;49.578;11.012;2023-11-21T02:46:23;982.197;;;7.58;93.6
13058;BME280;6595;49.578;11.012;2023-11-21T02:48:24;982.304;;;7.59;93.7
13058;BME280;6595;49.578;11.012;2023-11-21T02:50:24;982.127;;;7.59;93.9
13058;BME280;6595;49.578;11.012;2023-11-21T02:52:23;982.242;;;7.59;93.9
13058;BME280;6595;49.578;11.012;2023-11-21T02:54:24;982.196;;;7.59;93.9
13058;BME280;6595;49.578;11.012;2023-11-21T02:56:23;982.247;;;7.59;93.9
13058;BME280;6595;49.578;11.012;2023-11-21T02:58:24;982.223;;;7.58;93.4
13058;BME280;6595;49.578;11.012;2023-11-21T03:00:24;982.268;;;7.58;93.7
13058;BME280;6595;49.578;11.012;2023-11-21T03:02:23;982.243;;;7.59;93.7
13058;BME280;6595;49.578;11.012;2023-11-21T03:04:23;982.241;;;7.58;93.6
13058;BME280;6595;49.578;11.012;2023-11-21T03:06:24;982.244;;;7.61;93.8
13058;BME280;6595;49.578;11.012;2023-11-21T03:08:23;982.219;;;7.58;93.7
13058;BME280;6595;49.578;11.012;2023-11-21T03:10:23;982.203;;;7.61;93.7
13058;BME280;6595;49.578;11.012;2023-11-21T03:12:24;982.264;;;7.59;93.7
13058;BME280;6595;49.578;11.012;2023-11-21T03:14:23;982.211;;;7.59;93.8
13058;BME280;6595;49.578;11.012;2023-11-21T03:16:24;982.107;;;7.58;93.9
13058;BME280;6595;49.578;11.012;2023-11-21T03:18:24;982.175;;;7.59;93.6
13058;BME280;6595;49.578;11.012;2023-11-21T03:20:23;982.162;;;7.58;93.5
13058;BME280;6595;49.578;11.012;2023-11-21T03:22:24;982.167;;;7.61;93.5
13058;BME280;6595;49.578;11.012;2023-11-21T03:24:24;982.215;;;7.59;93.6
13058;BME280;6595;49.578;11.012;2023-11-21T03:26:23;982.162;;;7.59;93.6
13058;BME280;6595;49.578;11.012;2023-11-21T03:28:23;982.312;;;7.62;93.8
13058;BME280;6595;49.578;11.012;2023-11-21T03:30:24;982.174;;;7.61;93.6
13058;BME280;6595;49.578;11.012;2023-11-21T03:32:23;982.230;;;7.62;93.6
13058;BME280;6595;49.578;11.012;2023-11-21T03:34:25;982.172;;;7.59;93.4
13058;BME280;6595;49.578;11.012;2023-11-21T03:36:24;982.223;;;7.61;93.4
13058;BME280;6595;49.578;11.012;2023-11-21T03:38:23;982.247;;;7.62;93.7
13058;BME280;6595;49.578;11.012;2023-11-21T03:40:24;982.260;;;7.64;93.7
13058;BME280;6595;49.578;11.012;2023-11-21T03:42:24;982.269;;;7.62;93.5
13058;BME280;6595;49.578;11.012;2023-11-21T03:44:23;982.229;;;7.61;93.5
13058;BME280;6595;49.578;11.012;2023-11-21T03:46:24;982.348;;;7.64;93.7
13058;BME280;6595;49.578;11.012;2023-11-21T03:48:23;982.313;;;7.61;93.7
13058;BME280;6595;49.578;11.012;2023-11-21T03:50:23;982.304;;;7.64;93.5
13058;BME280;6595;49.578;11.012;2023-11-21T03:52:24;982.212;;;7.66;93.7
13058;BME280;6595;49.578;11.012;2023-11-21T03:54:23;982.251;;;7.64;93.8
13058;BME280;6595;49.578;11.012;2023-11-21T03:56:23;982.279;;;7.66;93.8
13058;BME280;6595;49.578;11.012;2023-11-21T03:58:24;982.266;;;7.65;93.6
13058;BME280;6595;49.578;11.012;2023-11-21T04:00:24;982.238;;;7.64;93.7
13058;BME280;6595;49.578;11.012;2023-11-21T04:02:24;982.238;;;7.64;93.7
13058;BME280;6595;49.578;11.012;2023-11-21T04:04:24;982.351;;;7.62;93.5
13058;BME280;6595;49.578;11.012;2023-11-21T04:06:23;982.359;;;7.62;93.6
13058;BME280;6595;49.578;11.012;2023-11-21T04:08:23;982.345;;;7.64;93.6
13058;BME280;6595;49.578;11.012;2023-11-21T04:10:24;982.385;;;7.62;93.7
13058;BME280;6595;49.578;11.012;2023-11-21T04:12:23;982.385;;;7.62;93.7
13058;BME280;6595;49.578;11.012;2023-11-21T04:14:23;982.418;;;7.62;93.5
13058;BME280;6595;49.578;11.012;2023-11-21T04:16:24;982.348;;;7.64;93.6
13058;BME280;6595;49.578;11.012;2023-11-21T04:18:23;982.429;;;7.66;93.3
13058;BME280;6595;49.578;11.012;2023-11-21T04:20:24;982.378;;;7.62;93.5
13058;BME280;6595;49.578;11.012;2023-11-21T04:22:23;982.355;;;7.68;93.5
13058;BME280;6595;49.578;11.012;2023-11-21T04:24:23;982.326;;;7.69;93.2
13058;BME280;6595;49.578;11.012;2023-11-21T04:26:24;982.380;;;7.68;93.2
13058;BME280;6595;49.578;11.012;2023-11-21T04:28:23;982.416;;;7.68;93.3
13058;BME280;6595;49.578;11.012;2023-11-21T04:30:23;982.402;;;7.71;93.1
13058;BME280;6595;49.578;11.012;2023-11-21T04:32:24;982.461;;;7.65;93.0
13058;BME280;6595;49.578;11.012;2023-11-21T04:34:23;982.461;;;7.65;93.0
13058;BME280;6595;49.578;11.012;2023-11-21T04:36:23;982.490;;;7.69;93.1
13058;BME280;6595;49.578;11.012;2023-11-21T04:38:24;982.470;;;7.69;93.1
13058;BME280;6595;49.578;11.012;2023-11-21T04:40:23;982.418;;;7.71;93.0
13058;BME280;6595;49.578;11.012;2023-11-21T04:42:23;982.531;;;7.68;93.0
13058;BME280;6595;49.578;11.012;2023-11-21T04:44:24;982.526;;;7.68;93.0
13058;BME280;6595;49.578;11.012;2023-11-21T04:46:23;982.486;;;7.66;93.1
13058;BME280;6595;49.578;11.012;2023-11-21T04:48:23;982.477;;;7.69;93.1
13058;BME280;6595;49.578;11.012;2023-11-21T04:50:24;982.423;;;7.69;92.9
13058;BME280;6595;49.578;11.012;2023-11-21T04:52:23;982.371;;;7.68;92.9
13058;BME280;6595;49.578;11.012;2023-11-21T04:54:24;982.532;;;7.69;93.3
13058;BME280;6595;49.578;11.012;2023-11-21T04:56:23;982.578;;;7.72;93.6
13058;BME280;6595;49.578;11.012;2023-11-21T04:58:23;982.595;;;7.76;93.6
13058;BME280;6595;49.578;11.012;2023-11-21T05:00:24;982.550;;;7.75;93.4
13058;BME280;6595;49.578;11.012;2023-11-21T05:02:23;982.557;;;7.78;93.5
13058;BME280;6595;49.578;11.012;2023-11-21T05:04:23;982.549;;;7.74;93.3
13058;BME280;6595;49.578;11.012;2023-11-21T05:06:23;982.572;;;7.75;93.3
13058;BME280;6595;49.578;11.012;2023-11-21T05:08:24;982.586;;;7.74;93.4
13058;BME280;6595;49.578;11.012;2023-11-21T05:10:23;982.567;;;7.72;93.4
13058;BME280;6595;49.578;11.012;2023-11-21T05:12:24;982.533;;;7.74;93.3
13058;BME280;6595;49.578;11.012;2023-11-21T05:14:24;982.547;;;7.72;93.3
13058;BME280;6595;49.578;11.012;2023-11-21T05:16:25;982.646;;;7.74;93.4
13058;BME280;6595;49.578;11.012;2023-11-21T05:18:23;982.580;;;7.71;93.4
13058;BME280;6595;49.578;11.012;2023-11-21T05:20:24;982.578;;;7.71;93.5
13058;BME280;6595;49.578;11.012;2023-11-21T05:22:23;982.646;;;7.66;93.6
13058;BME280;6595;49.578;11.012;2023-11-21T05:24:23;982.719;;;7.62;93.2
13058;BME280;6595;49.578;11.012;2023-11-21T05:26:24;982.719;;;7.68;93.3
13058;BME280;6595;49.578;11.012;2023-11-21T05:28:23;982.666;;;7.65;93.6
13058;BME280;6595;49.578;11.012;2023-11-21T05:30:23;982.708;;;7.68;93.8
13058;BME280;6595;49.578;11.012;2023-11-21T05:32:24;982.667;;;7.65;93.7
13058;BME280;6595;49.578;11.012;2023-11-21T05:34:23;982.802;;;7.69;93.8
13058;BME280;6595;49.578;11.012;2023-11-21T05:36:23;982.805;;;7.68;94.0
13058;BME280;6595;49.578;11.012;2023-11-21T05:38:24;982.824;;;7.68;94.1
13058;BME280;6595;49.578;11.012;2023-11-21T05:40:23;982.820;;;7.66;94.0
13058;BME280;6595;49.578;11.012;2023-11-21T05:42:23;982.886;;;7.64;94.1
13058;BME280;6595;49.578;11.012;2023-11-21T05:44:24;982.903;;;7.64;94.0
13058;BME280;6595;49.578;11.012;2023-11-21T05:46:23;982.896;;;7.66;94.1
13058;BME280;6595;49.578;11.012;2023-11-21T05:48:23;982.816;;;7.68;94.2
13058;BME280;6595;49.578;11.012;2023-11-21T05:50:24;982.818;;;7.66;94.1
13058;BME280;6595;49.578;11.012;2023-11-21T05:52:24;982.805;;;7.72;94.0
13058;BME280;6595;49.578;11.012;2023-11-21T05:54:23;982.865;;;7.71;94.0
13058;BME280;6595;49.578;11.012;2023-11-21T05:56:24;982.888;;;7.71;94.0
13058;BME280;6595;49.578;11.012;2023-11-21T05:58:24;982.927;;;7.68;93.7
13058;BME280;6595;49.578;11.012;2023-11-21T06:00:24;983.021;;;7.71;94.0
13058;BME280;6595;49.578;11.012;2023-11-21T06:02:23;982.973;;;7.66;93.9
13058;BME280;6595;49.578;11.012;2023-11-21T06:04:24;983.024;;;7.69;94.0
13058;BME280;6595;49.578;11.012;2023-11-21T06:06:24;983.095;;;7.66;93.9
13058;BME280;6595;49.578;11.012;2023-11-21T06:08:23;983.056;;;7.65;94.0
13058;BME280;6595;49.578;11.012;2023-11-21T06:10:24;983.039;;;7.66;94.0
13058;BME280;6595;49.578;11.012;2023-11-21T06:12:24;983.023;;;7.69;94.0
13058;BME280;6595;49.578;11.012;2023-11-21T06:14:23;983.008;;;7.69;94.2
13058;BME280;6595;49.578;11.012;2023-11-21T06:16:24;983.000;;;7.69;94.1
13058;BME280;6595;49.578;11.012;2023-11-21T06:18:24;982.993;;;7.66;94.1
13058;BME280;6595;49.578;11.012;2023-11-21T06:20:23;983.098;;;7.69;94.1
13058;BME280;6595;49.578;11.012;2023-11-21T06:22:24;983.144;;;7.71;94.1
13058;BME280;6595;49.578;11.012;2023-11-21T06:24:23;983.159;;;7.74;94.2
13058;BME280;6595;49.578;11.012;2023-11-21T06:26:23;983.104;;;7.74;94.1
13058;BME280;6595;49.578;11.012;2023-11-21T06:28:24;983.131;;;7.71;94.0
13058;BME280;6595;49.578;11.012;2023-11-21T06:30:23;983.260;;;7.74;94.0
13058;BME280;6595;49.578;11.012;2023-11-21T06:32:23;983.202;;;7.74;94.1
13058;BME280;6595;49.578;11.012;2023-11-21T06:34:24;983.228;;;7.78;94.1
13058;BME280;6595;49.578;11.012;2023-11-21T06:36:24;983.261;;;7.74;94.0
13058;BME280;6595;49.578;11.012;2023-11-21T06:38:23;983.297;;;7.74;93.9
13058;BME280;6595;49.578;11.012;2023-11-21T06:40:24;983.338;;;7.72;93.9
13058;BME280;6595;49.578;11.012;2023-11-21T06:42:24;983.350;;;7.72;93.9
13058;BME280;6595;49.578;11.012;2023-11-21T06:44:23;983.457;;;7.74;94.0
13058;BME280;6595;49.578;11.012;2023-11-21T06:46:24;983.457;;;7.74;94.0
13058;BME280;6595;49.578;11.012;2023-11-21T06:48:24;983.434;;;7.74;94.1
13058;BME280;6595;49.578;11.012;2023-11-21T06:50:23;983.457;;;7.74;94.0
13058;BME280;6595;49.578;11.012;2023-11-21T06:52:24;983.362;;;7.75;94.1
13058;BME280;6595;49.578;11.012;2023-11-21T06:54:24;983.453;;;7.78;93.9
13058;BME280;6595;49.578;11.012;2023-11-21T06:56:23;983.490;;;7.76;94.0
13058;BME280;6595;49.578;11.012;2023-11-21T06:58:24;983.518;;;7.69;94.2
13058;BME280;6595;49.578;11.012;2023-11-21T07:00:24;983.481;;;7.65;94.4
13058;BME280;6595;49.578;11.012;2023-11-21T07:02:23;983.481;;;7.65;94.4
13058;BME280;6595;49.578;11.012;2023-11-21T07:04:23;983.516;;;7.62;94.5
13058;BME280;6595;49.578;11.012;2023-11-21T07:06:24;983.516;;;7.62;94.5
13058;BME280;6595;49.578;11.012;2023-11-21T07:08:23;983.732;;;7.65;94.5
13058;BME280;6595;49.578;11.012;2023-11-21T07:10:23;983.683;;;7.61;94.5
13058;BME280;6595;49.578;11.012;2023-11-21T07:12:24;983.736;;;7.65;94.5
13058;BME280;6595;49.578;11.012;2023-11-21T07:14:23;983.739;;;7.62;94.5
13058;BME280;6595;49.578;11.012;2023-11-21T07:16:24;983.759;;;7.65;94.4
13058;BME280;6595;49.578;11.012;2023-11-21T07:18:24;983.682;;;7.68;94.4
13058;BME280;6595;49.578;11.012;2023-11-21T07:20:23;983.872;;;7.69;94.4
13058;BME280;6595;49.578;11.012;2023-11-21T07:22:24;983.953;;;7.74;94.3
13058;BME280;6595;49.578;11.012;2023-11-21T07:24:24;983.966;;;7.78;94.2
13058;BME280;6595;49.578;11.012;2023-11-21T07:26:23;984.024;;;7.75;94.3
13058;BME280;6595;49.578;11.012;2023-11-21T07:28:24;983.973;;;7.78;94.1
13058;BME280;6595;49.578;11.012;2023-11-21T07:30:23;983.986;;;7.81;94.1
13058;BME280;6595;49.578;11.012;2023-11-21T07:32:23;983.966;;;7.88;94.1
13058;BME280;6595;49.578;11.012;2023-11-21T07:34:24;983.969;;;7.89;94.1
13058;BME280;6595;49.578;11.012;2023-11-21T07:36:23;983.897;;;7.90;94.0
13058;BME280;6595;49.578;11.012;2023-11-21T07:38:24;983.899;;;7.99;94.0
13058;BME280;6595;49.578;11.012;2023-11-21T07:40:24;983.853;;;8.00;93.9
13058;BME280;6595;49.578;11.012;2023-11-21T07:42:23;983.920;;;7.99;93.5
13058;BME280;6595;49.578;11.012;2023-11-21T07:44:24;983.998;;;8.03;93.6
13058;BME280;6595;49.578;11.012;2023-11-21T07:46:23;984.051;;;8.13;93.5
13058;BME280;6595;49.578;11.012;2023-11-21T07:48:23;984.010;;;8.13;93.4
13058;BME280;6595;49.578;11.012;2023-11-21T07:50:24;984.043;;;8.14;93.4
13058;BME280;6595;49.578;11.012;2023-11-21T07:52:23;984.086;;;8.19;92.5
13058;BME280;6595;49.578;11.012;2023-11-21T07:54:23;984.085;;;8.19;92.3
13058;BME280;6595;49.578;11.012;2023-11-21T07:56:24;984.146;;;8.22;92.4
13058;BME280;6595;49.578;11.012;2023-11-21T07:58:23;984.135;;;8.26;92.8
13058;BME280;6595;49.578;11.012;2023-11-21T08:00:23;984.184;;;8.29;92.8
13058;BME280;6595;49.578;11.012;2023-11-21T08:02:24;984.165;;;8.33;92.6
13058;BME280;6595;49.578;11.012;2023-11-21T08:04:24;984.187;;;8.30;92.5
13058;BME280;6595;49.578;11.012;2023-11-21T08:06:23;984.260;;;8.26;92.7
13058;BME280;6595;49.578;11.012;2023-11-21T08:08:23;984.201;;;8.26;92.7
13058;BME280;6595;49.578;11.012;2023-11-21T08:10:24;984.278;;;8.26;92.7
13058;BME280;6595;49.578;11.012;2023-11-21T08:12:23;984.278;;;8.26;92.7
13058;BME280;6595;49.578;11.012;2023-11-21T08:14:23;984.236;;;8.25;92.7
13058;BME280;6595;49.578;11.012;2023-11-21T08:16:24;984.226;;;8.23;92.8
13058;BME280;6595;49.578;11.012;2023-11-21T08:18:23;984.289;;;8.29;92.8
13058;BME280;6595;49.578;11.012;2023-11-21T08:20:23;984.197;;;8.32;92.9
13058;BME280;6595;49.578;11.012;2023-11-21T08:22:24;984.213;;;8.32;92.5
13058;BME280;6595;49.578;11.012;2023-11-21T08:24:23;984.301;;;8.35;92.6
13058;BME280;6595;49.578;11.012;2023-11-21T08:26:24;984.322;;;8.28;92.6
13058;BME280;6595;49.578;11.012;2023-11-21T08:28:24;984.322;;;8.28;92.6
13058;BME280;6595;49.578;11.012;2023-11-21T08:30:24;984.218;;;8.32;92.5
13058;BME280;6595;49.578;11.012;2023-11-21T08:32:24;984.314;;;8.35;92.4
13058;BME280;6595;49.578;11.012;2023-11-21T08:34:24;984.250;;;8.41;92.2
13058;BME280;6595;49.578;11.012;2023-11-21T08:36:24;984.243;;;8.47;92.1
13058;BME280;6595;49.578;11.012;2023-11-21T08:38:24;984.264;;;8.50;91.9
13058;BME280;6595;49.578;11.012;2023-11-21T08:40:24;984.311;;;8.52;91.5
13058;BME280;6595;49.578;11.012;2023-11-21T08:42:23;984.303;;;8.57;91.7
13058;BME280;6595;49.578;11.012;2023-11-21T08:44:24;984.333;;;8.60;91.2
13058;BME280;6595;49.578;11.012;2023-11-21T08:46:24;984.442;;;8.65;90.9
13058;BME280;6595;49.578;11.012;2023-11-21T08:48:23;984.411;;;8.60;90.4
13058;BME280;6595;49.578;11.012;2023-11-21T08:50:23;984.460;;;8.67;90.5
13058;BME280;6595;49.578;11.012;2023-11-21T08:52:24;984.434;;;8.74;90.1
13058;BME280;6595;49.578;11.012;2023-11-21T08:54:24;984.429;;;8.77;90.0
13058;BME280;6595;49.578;11.012;2023-11-21T08:56:23;984.421;;;8.70;90.0
13058;BME280;6595;49.578;11.012;2023-11-21T08:58:24;984.505;;;8.64;90.1
13058;BME280;6595;49.578;11.012;2023-11-21T09:00:23;984.534;;;8.64;90.3
13058;BME280;6595;49.578;11.012;2023-11-21T09:02:25;984.577;;;8.63;89.6
13058;BME280;6595;49.578;11.012;2023-11-21T09:04:24;984.639;;;8.67;89.5
13058;BME280;6595;49.578;11.012;2023-11-21T09:06:23;984.634;;;8.73;89.6
13058;BME280;6595;49.578;11.012;2023-11-21T09:08:23;984.634;;;8.73;89.6
13058;BME280;6595;49.578;11.012;2023-11-21T09:10:24;984.657;;;8.83;89.0
13058;BME280;6595;49.578;11.012;2023-11-21T09:12:23;984.667;;;8.84;89.1
13058;BME280;6595;49.578;11.012;2023-11-21T09:14:23;984.675;;;8.94;88.9
13058;BME280;6595;49.578;11.012;2023-11-21T09:16:24;984.691;;;9.00;88.3
13058;BME280;6595;49.578;11.012;2023-11-21T09:18:23;984.778;;;8.97;88.1
13058;BME280;6595;49.578;11.012;2023-11-21T09:20:23;984.783;;;8.94;88.7
13058;BME280;6595;49.578;11.012;2023-11-21T09:22:24;984.764;;;9.00;88.8
13058;BME280;6595;49.578;11.012;2023-11-21T09:24:23;984.838;;;9.05;88.7
13058;BME280;6595;49.578;11.012;2023-11-21T09:26:24;984.856;;;9.11;88.9
13058;BME280;6595;49.578;11.012;2023-11-21T09:28:23;984.868;;;9.08;88.5
13058;BME280;6595;49.578;11.012;2023-11-21T09:30:23;984.896;;;9.17;88.2
13058;BME280;6595;49.578;11.012;2023-11-21T09:32:24;984.905;;;9.22;88.1
13058;BME280;6595;49.578;11.012;2023-11-21T09:34:24;984.930;;;9.31;87.5
13058;BME280;6595;49.578;11.012;2023-11-21T09:36:25;984.882;;;9.37;87.6
13058;BME280;6595;49.578;11.012;2023-11-21T09:38:23;984.954;;;9.45;87.8
13058;BME280;6595;49.578;11.012;2023-11-21T09:40:23;984.940;;;9.46;87.7
13058;BME280;6595;49.578;11.012;2023-11-21T09:42:30;984.885;;;9.53;88.1
13058;BME280;6595;49.578;11.012;2023-11-21T09:44:32;985.046;;;9.53;87.3
13058;BME280;6595;49.578;11.012;2023-11-21T09:46:24;984.931;;;9.58;87.4
13058;BME280;6595;49.578;11.012;2023-11-21T09:48:24;984.881;;;9.62;87.0
13058;BME280;6595;49.578;11.012;2023-11-21T09:50:24;984.921;;;9.66;87.1
13058;BME280;6595;49.578;11.012;2023-11-21T09:52:25;984.854;;;9.66;87.3
13058;BME280;6595;49.578;11.012;2023-11-21T09:54:24;984.898;;;9.71;87.2
13058;BME280;6595;49.578;11.012;2023-11-21T09:56:23;984.880;;;9.76;87.6
13058;BME280;6595;49.578;11.012;2023-11-21T09:58:24;984.890;;;9.68;86.9
13058;BME280;6595;49.578;11.012;2023-11-21T10:00:24;984.957;;;9.69;88.0
13058;BME280;6595;49.578;11.012;2023-11-21T10:02:25;984.970;;;9.76;87.3
13058;BME280;6595;49.578;11.012;2023-11-21T10:04:24;984.886;;;9.75;87.4
13058;BME280;6595;49.578;11.012;2023-11-21T10:06:24;984.989;;;9.76;87.5
13058;BME280;6595;49.578;11.012;2023-11-21T10:08:24;984.989;;;9.76;87.5
13058;BME280;6595;49.578;11.012;2023-11-21T10:10:24;984.919;;;9.46;87.2
13058;BME280;6595;49.578;11.012;2023-11-21T10:12:23;984.962;;;9.49;87.5
13058;BME280;6595;49.578;11.012;2023-11-21T10:14:24;984.951;;;9.52;87.8
13058;BME280;6595;49.578;11.012;2023-11-21T10:16:25;984.930;;;9.48;87.2
13058;BME280;6595;49.578;11.012;2023-11-21T10:18:23;984.930;;;9.48;87.2
13058;BME280;6595;49.578;11.012;2023-11-21T10:20:24;984.985;;;9.53;88.1
13058;BME280;6595;49.578;11.012;2023-11-21T10:22:24;984.962;;;9.53;87.7
13058;BME280;6595;49.578;11.012;2023-11-21T10:24:23;984.976;;;9.53;88.2
13058;BME280;6595;49.578;11.012;2023-11-21T10:26:26;984.934;;;9.61;88.5
13058;BME280;6595;49.578;11.012;2023-11-21T10:28:24;985.067;;;9.55;87.9
13058;BME280;6595;49.578;11.012;2023-11-21T10:30:27;984.969;;;9.68;87.5
13058;BME280;6595;49.578;11.012;2023-11-21T10:32:28;985.114;;;9.69;85.9
13058;BME280;6595;49.578;11.012;2023-11-21T10:34:24;985.039;;;9.63;86.7
13058;BME280;6595;49.578;11.012;2023-11-21T10:36:26;985.039;;;9.66;85.0
13058;BME280;6595;49.578;11.012;2023-11-21T10:38:23;985.039;;;9.66;85.0
13058;BME280;6595;49.578;11.012;2023-11-21T10:40:27;985.056;;;9.73;84.6
13058;BME280;6595;49.578;11.012;2023-11-21T10:42:24;985.061;;;9.76;85.5
13058;BME280;6595;49.578;11.012;2023-11-21T10:44:23;985.068;;;9.79;84.2
13058;BME280;6595;49.578;11.012;2023-11-21T10:46:23;985.031;;;9.88;84.3
13058;BME280;6595;49.578;11.012;2023-11-21T10:48:24;985.003;;;9.79;83.6
13058;BME280;6595;49.578;11.012;2023-11-21T10:50:23;985.099;;;9.88;83.5
13058;BME280;6595;49.578;11.012;2023-11-21T10:52:26;985.069;;;9.96;84.5
13058;BME280;6595;49.578;11.012;2023-11-21T10:54:25;985.105;;;9.97;84.0
13058;BME280;6595;49.578;11.012;2023-11-21T10:56:23;985.083;;;9.93;82.9
13058;BME280;6595;49.578;11.012;2023-11-21T10:58:23;985.044;;;9.90;82.9
13058;BME280;6595;49.578;11.012;2023-11-21T11:00:24;985.084;;;9.96;83.1